KLAL/LAL METAR and TAF weather

Enter ICAO airport designator
Station Type Date Time Source
KLAL METAR 2021/01/27 13:50 UTC NOAA

KLAL 271350Z 21010G14KT 5SM BR OVC004 19/19 A3007


Station Type Date Time Source
KLAL Decoded METAR 2021/01/27 13:50 UTC NOAA

Lakeland Regional, FL, United States (KLAL) 27-59N 082-01W
Jan 27, 2021 - 08:50 AM EST / 2021.01.27 1350 UTC
Wind: from the SSW (210 degrees) at 12 MPH (10 KT) gusting to 16 MPH (14 KT):0
Visibility: 5 mile(s):0
Sky conditions: overcast
Weather: mist
Temperature: 66 F (19 C)
Dew Point: 66 F (19 C)
Relative Humidity: 100%
Pressure (altimeter): 30.07 in. Hg (1018 hPa)
ob: KLAL 271350Z 21010G14KT 5SM BR OVC004 19/19 A3007
cycle: 14

Station Type Date Time Source
KLAL TAF 2021/01/27 12:51 UTC NOAA

TAF KLAL 271249Z 2712/2812 19006KT 3SM BR SCT002 BKN015
TEMPO 2712/2714 1SM BR OVC003
FM271400 19005KT P6SM SCT008 BKN020
FM271700 20009KT P6SM SCT020 BKN250
FM280000 23005KT 6SM SHRA SCT015 BKN030 OVC080
FM280400 23008KT P6SM FEW008 SCT030 OVC080

Example: see airport list